Alonsa, Canada
Current Conditions -  °F | °C
As of 4:00 PM on Wednesday 22 Oct 2014 (Local Time) from CYDN Reporting Station
Few Clouds Few Clouds  
Wind Chill: 63°   Ceiling: Unl
Heat Index: 63°   Visibility: 9mi
Dew Point: 48°   Wind: 10mph
Humidity: 59%   Direction: 220°SW
Pressure: 29.6"   Gusts: NA
Location:  50.8°N, 98.98°W
Report Text: CYDN 222100Z AUTO 22009KT 9SM FEW110 17/09 A2960 RMK SLP029 DENSITY ALT 1800FT
Loading
Personal Weather Stations






























Interactive Weather Map
Tropical Storm Tracking
New forecast layout! Learn more

10-Day Weather Forecast

Advertisements
Track Severe Weather on mobile